Time;durP1;ratioP1;P1;durP2;ratioP2;P2;SDS_P1;SDS_P2;PMS_P1;PMS_P2;Temp;Humidity;BMP_temperature;BMP_pressure;BME280_temperature;BME280_humidity;BME280_pressure;Samples;Min_cycle;Max_cycle;Signal;HPM_P1;HPM_P2
2023/01/11 00:02:06;;;;;;;30.70;13.30;;;;;;;4.57;97.60;100731.93;106658;1261;23020;-58
2023/01/11 00:04:37;;;;;;;28.50;12.20;;;;;;;4.56;97.67;100733.67;106485;1267;23157;-58
2023/01/11 00:07:08;;;;;;;41.80;14.40;;;;;;;4.57;97.70;100725.50;106508;1270;22543;-58
2023/01/11 00:09:39;;;;;;;31.00;13.20;;;;;;;4.59;97.75;100729.13;106517;1269;25269;-56
2023/01/11 00:12:13;;;;;;;36.30;14.50;;;;;;;4.59;97.55;100728.78;106525;1270;22534;-58
2023/01/11 00:14:44;;;;;;;32.90;15.50;;;;;;;4.58;97.31;100725.20;106559;1268;23022;-57
2023/01/11 00:17:15;;;;;;;40.80;16.90;;;;;;;4.57;97.30;100721.96;106785;1273;22531;-58
2023/01/11 00:19:45;;;;;;;36.60;15.80;;;;;;;4.56;97.28;100723.56;106552;1276;24236;-58
2023/01/11 00:22:18;;;;;;;42.30;17.20;;;;;;;4.55;97.16;100723.27;106505;1254;22530;-58
2023/01/11 00:24:49;;;;;;;38.80;16.10;;;;;;;4.54;97.16;100724.80;106499;1276;22561;-58
2023/01/11 00:27:20;;;;;;;39.90;15.90;;;;;;;4.54;97.14;100720.05;106555;1273;22548;-58
2023/01/11 00:29:51;;;;;;;36.10;14.40;;;;;;;4.53;97.03;100720.23;106636;1276;26508;-58
2023/01/11 00:32:22;;;;;;;30.40;14.20;;;;;;;4.51;96.71;100719.73;106492;1261;22541;-59
2023/01/11 00:34:53;;;;;;;37.90;14.30;;;;;;;4.48;96.73;100721.36;106502;1260;24245;-58
2023/01/11 00:37:24;;;;;;;35.60;14.10;;;;;;;4.45;96.74;100714.39;106626;1261;25343;-58
2023/01/11 00:39:55;;;;;;;37.50;15.90;;;;;;;4.40;96.56;100713.64;106515;1276;22553;-58
2023/01/11 00:48:05;;;;;;;33.40;13.70;;;;;;;4.28;96.18;100716.17;106542;1276;22534;-58
2023/01/11 00:50:39;;;;;;;32.80;12.50;;;;;;;4.24;96.17;100721.38;106541;1276;22630;-59
2023/01/11 00:53:10;;;;;;;30.30;12.70;;;;;;;4.21;95.89;100721.92;106624;1276;22541;-58
2023/01/11 00:55:41;;;;;;;29.20;12.30;;;;;;;4.16;95.84;100722.16;106474;1262;22535;-58
2023/01/11 00:58:12;;;;;;;29.20;12.10;;;;;;;4.13;95.74;100722.77;106532;1270;25354;-56
2023/01/11 01:00:43;;;;;;;33.70;13.70;;;;;;;4.08;95.39;100724.45;106463;1257;22534;-58
2023/01/11 01:03:14;;;;;;;28.00;12.00;;;;;;;4.02;95.05;100723.91;106543;1276;24356;-58
2023/01/11 01:05:45;;;;;;;27.30;11.40;;;;;;;3.97;95.16;100723.14;106507;1276;23223;-58
2023/01/11 01:08:16;;;;;;;27.10;11.90;;;;;;;3.95;95.35;100723.25;106548;1270;22632;-57
2023/01/11 01:10:51;;;;;;;33.30;11.90;;;;;;;3.91;95.28;100716.93;106480;1276;22573;-58
2023/01/11 01:16:11;;;;;;;25.80;9.90;;;;;;;3.82;94.87;100713.39;106488;1261;24250;-57
2023/01/11 01:18:42;;;;;;;28.40;11.20;;;;;;;3.79;94.99;100711.79;106564;1273;24294;-57
2023/01/11 01:21:13;;;;;;;27.20;10.40;;;;;;;3.75;94.76;100712.58;106552;1260;22541;-58
2023/01/11 01:23:44;;;;;;;28.20;10.10;;;;;;;3.70;94.46;100714.78;106576;1276;22540;-57
2023/01/11 01:26:14;;;;;;;29.40;10.60;;;;;;;3.65;94.39;100715.02;106511;1270;22629;-57
2023/01/11 01:28:45;;;;;;;23.30;8.10;;;;;;;3.60;94.00;100713.05;106538;1270;23021;-58
2023/01/11 01:31:17;;;;;;;22.90;9.60;;;;;;;3.55;93.86;100711.73;106557;1276;22795;-58
2023/01/11 01:33:48;;;;;;;24.60;8.50;;;;;;;3.50;94.03;100707.55;106578;1266;24259;-59
2023/01/11 01:36:18;;;;;;;23.50;8.00;;;;;;;3.45;93.78;100709.46;106484;1270;22599;-57
2023/01/11 01:38:49;;;;;;;19.80;6.40;;;;;;;3.40;93.83;100707.11;106571;1276;22660;-58
2023/01/11 01:41:20;;;;;;;29.40;9.40;;;;;;;3.35;93.98;100703.55;106504;1270;25345;-58
2023/01/11 01:43:54;;;;;;;25.30;9.60;;;;;;;3.30;93.93;100695.98;106542;1262;22549;-56
2023/01/11 01:46:29;;;;;;;30.20;11.70;;;;;;;3.25;93.94;100692.98;106584;1270;22543;-57
2023/01/11 01:49:06;;;;;;;29.20;11.20;;;;;;;3.21;94.04;100695.89;106488;1264;24240;-59
2023/01/11 01:51:43;;;;;;;24.70;10.60;;;;;;;3.16;93.72;100696.77;106470;1271;22602;-57
2023/01/11 01:54:17;;;;;;;24.00;9.50;;;;;;;3.10;93.60;100694.55;106590;1269;25412;-58
2023/01/11 01:56:52;;;;;;;29.70;9.70;;;;;;;3.06;93.45;100689.96;106644;1276;22546;-59
2023/01/11 01:59:26;;;;;;;23.10;9.00;;;;;;;2.99;92.97;100687.63;106499;1270;23025;-58
2023/01/11 02:01:58;;;;;;;23.70;9.10;;;;;;;2.94;92.87;100687.64;106609;1270;25380;-58
2023/01/11 02:04:32;;;;;;;22.70;8.30;;;;;;;2.90;93.08;100685.33;106622;1270;24238;-58
2023/01/11 02:07:07;;;;;;;20.80;7.60;;;;;;;2.86;92.93;100686.26;106517;1276;25322;-59
2023/01/11 02:09:44;;;;;;;24.00;9.00;;;;;;;2.81;93.11;100678.36;106546;1270;25254;-57
2023/01/11 02:12:16;;;;;;;24.30;8.10;;;;;;;2.76;93.07;100675.84;106612;1268;22548;-58
2023/01/11 02:14:49;;;;;;;25.30;9.10;;;;;;;2.72;93.11;100672.52;106558;1276;22531;-58
2023/01/11 02:17:20;;;;;;;27.60;9.20;;;;;;;2.68;93.28;100672.25;106613;1260;22544;-57
2023/01/11 02:19:58;;;;;;;23.30;8.70;;;;;;;2.65;93.32;100666.86;106519;1260;22537;-55
2023/01/11 02:23:07;;;;;;;25.40;7.40;;;;;;;2.61;93.44;100665.10;106613;1270;22702;-58
2023/01/11 02:26:16;;;;;;;25.60;9.10;;;;;;;2.57;93.28;100663.58;106503;1276;22659;-58
2023/01/11 02:28:54;;;;;;;24.10;6.60;;;;;;;2.50;93.01;100665.73;106089;1274;22540;-59
2023/01/11 02:31:33;;;;;;;25.40;6.90;;;;;;;2.45;93.07;100661.77;106228;1280;22549;-58
2023/01/11 02:34:21;;;;;;;18.40;5.10;;;;;;;2.40;93.04;100659.70;106114;1267;25380;-59
2023/01/11 02:37:07;;;;;;;16.70;5.50;;;;;;;2.38;93.15;100657.70;106064;1263;22562;-56
2023/01/11 02:39:51;;;;;;;21.20;4.70;;;;;;;2.37;93.26;100651.02;106057;1266;26053;-57
2023/01/11 02:45:41;;;;;;;18.50;4.40;;;;;;;2.24;92.42;100642.60;105646;1280;25408;-58
2023/01/11 02:48:23;;;;;;;14.10;4.40;;;;;;;2.22;93.07;100635.47;105639;1280;22545;-57
2023/01/11 02:51:02;;;;;;;15.50;4.00;;;;;;;2.22;93.13;100632.72;105662;1274;25483;-57
2023/01/11 02:53:39;;;;;;;18.60;4.00;;;;;;;2.21;92.92;100628.02;105699;1281;22543;-58
2023/01/11 02:56:16;;;;;;;14.80;3.50;;;;;;;2.17;92.60;100631.35;105769;1280;25244;-58
2023/01/11 02:58:49;;;;;;;14.30;3.60;;;;;;;2.14;92.55;100628.95;105661;1280;24380;-58
2023/01/11 03:01:22;;;;;;;18.50;4.10;;;;;;;2.12;92.85;100624.80;105756;1273;25474;-57
2023/01/11 03:03:53;;;;;;;13.60;3.20;;;;;;;2.09;92.68;100623.83;105806;1270;24265;-57
2023/01/11 03:06:28;;;;;;;17.20;3.30;;;;;;;2.06;92.63;100625.05;105980;1273;22920;-58
2023/01/11 03:09:13;;;;;;;18.10;3.80;;;;;;;2.05;92.77;100621.45;106100;1281;24378;-56
2023/01/11 03:15:08;;;;;;;20.50;4.10;;;;;;;1.97;92.64;100623.34;106087;1281;22664;-59
2023/01/11 03:17:50;;;;;;;13.40;3.50;;;;;;;1.92;92.31;100616.48;106144;1281;25371;-58
2023/01/11 03:20:25;;;;;;;13.50;2.90;;;;;;;1.89;92.50;100620.14;106111;1274;25401;-59
2023/01/11 03:23:10;;;;;;;14.40;3.50;;;;;;;1.89;92.75;100616.69;106309;1263;22534;-59
2023/01/11 03:26:00;;;;;;;14.60;3.50;;;;;;;1.89;92.73;100613.30;106554;1262;25334;-58
2023/01/11 03:28:37;;;;;;;16.70;3.50;;;;;;;1.87;92.35;100614.89;106515;1261;24284;-59
2023/01/11 03:31:15;;;;;;;17.50;3.90;;;;;;;1.85;92.36;100612.56;106608;1273;22549;-57
2023/01/11 03:33:56;;;;;;;17.00;3.90;;;;;;;1.81;92.16;100611.26;106489;1276;22536;-56
2023/01/11 03:36:34;;;;;;;16.60;3.40;;;;;;;1.80;92.35;100611.73;106504;1260;24463;-59
2023/01/11 03:39:13;;;;;;;15.10;3.10;;;;;;;1.79;92.47;100605.39;106520;1276;22582;-58
2023/01/11 03:41:46;;;;;;;16.30;3.40;;;;;;;1.78;92.53;100595.41;106564;1276;25274;-55
2023/01/11 03:44:20;;;;;;;17.40;3.30;;;;;;;1.77;92.53;100593.61;106405;1273;245863;-58
2023/01/11 03:46:56;;;;;;;11.70;2.40;;;;;;;1.75;92.49;100595.36;106658;1268;22631;-58
2023/01/11 03:49:31;;;;;;;12.90;2.70;;;;;;;1.73;92.25;100592.80;106611;1261;22534;-57
2023/01/11 03:52:05;;;;;;;12.90;3.30;;;;;;;1.69;92.11;100595.13;106576;1267;22554;-59
2023/01/11 03:54:38;;;;;;;15.80;2.80;;;;;;;1.68;92.34;100590.02;106529;1273;22528;-57
2023/01/11 03:57:14;;;;;;;10.60;2.40;;;;;;;1.68;92.45;100584.22;106647;1262;24380;-58
2023/01/11 03:59:46;;;;;;;12.90;2.70;;;;;;;1.65;92.27;100575.73;106554;1276;25373;-57
2023/01/11 04:02:22;;;;;;;13.40;2.50;;;;;;;1.63;92.21;100572.39;106609;1262;22531;-57
2023/01/11 04:04:53;;;;;;;14.30;2.50;;;;;;;1.61;92.12;100570.83;106574;1261;23921;-57
2023/01/11 04:07:24;;;;;;;14.90;2.80;;;;;;;1.58;92.04;100570.31;106542;1276;22563;-57
2023/01/11 04:09:55;;;;;;;14.60;3.10;;;;;;;1.56;92.16;100560.50;106472;1268;22537;-58
2023/01/11 04:12:27;;;;;;;14.00;3.10;;;;;;;1.52;91.84;100563.70;106468;1270;26800;-57
2023/01/11 04:14:58;;;;;;;10.00;2.30;;;;;;;1.48;91.95;100559.59;106575;1276;26732;-57
2023/01/11 04:17:29;;;;;;;13.00;2.80;;;;;;;1.46;92.00;100557.16;106761;1268;24255;-57
2023/01/11 04:20:00;;;;;;;21.60;5.10;;;;;;;1.43;91.94;100552.33;106576;1262;24242;-59
2023/01/11 04:22:30;;;;;;;21.70;5.80;;;;;;;1.40;92.15;100551.02;106498;1276;23118;-58
2023/01/11 04:25:02;;;;;;;21.40;4.40;;;;;;;1.40;92.20;100546.86;106453;1261;22534;-58
2023/01/11 04:27:33;;;;;;;15.60;4.30;;;;;;;1.39;92.25;100539.71;106656;1273;25350;-58
2023/01/11 04:30:04;;;;;;;15.30;3.80;;;;;;;1.38;92.26;100537.99;106529;1268;24218;-57
2023/01/11 04:32:35;;;;;;;21.90;5.10;;;;;;;1.37;92.33;100533.21;106622;1276;22559;-56
2023/01/11 04:35:08;;;;;;;19.60;4.50;;;;;;;1.34;92.19;100529.95;106576;1276;22988;-58
2023/01/11 04:37:39;;;;;;;15.80;3.80;;;;;;;1.29;91.90;100528.59;106558;1276;25276;-57
2023/01/11 04:40:12;;;;;;;13.30;3.50;;;;;;;1.25;92.05;100523.12;106544;1273;22538;-57
2023/01/11 04:42:46;;;;;;;13.80;3.00;;;;;;;1.21;92.11;100522.45;106509;1268;22680;-58
2023/01/11 04:45:17;;;;;;;16.70;4.00;;;;;;;1.18;92.15;100519.83;106527;1262;24266;-58
2023/01/11 04:47:52;;;;;;;16.20;4.10;;;;;;;1.16;92.30;100519.30;106477;1268;23146;-57
2023/01/11 04:50:24;;;;;;;12.50;3.20;;;;;;;1.15;92.46;100523.73;106873;1268;22526;-58
2023/01/11 04:52:55;;;;;;;15.50;3.50;;;;;;;1.12;92.38;100521.85;106544;1274;22579;-57
2023/01/11 04:55:26;;;;;;;21.00;4.20;;;;;;;1.11;92.53;100520.21;106462;1276;22555;-56
2023/01/11 04:57:57;;;;;;;13.90;3.70;;;;;;;1.11;92.64;100516.91;106472;1260;23290;-58
2023/01/11 05:00:28;;;;;;;12.40;2.30;;;;;;;1.10;92.46;100512.20;106469;1276;22770;-57
2023/01/11 05:03:01;;;;;;;19.00;3.90;;;;;;;1.10;92.50;100511.25;106460;1276;22543;-58
2023/01/11 05:05:32;;;;;;;10.30;2.80;;;;;;;1.09;92.39;100507.50;106773;1266;24531;-57
2023/01/11 05:08:03;;;;;;;21.00;2.90;;;;;;;1.07;92.45;100498.56;106494;1268;24495;-57
2023/01/11 05:10:35;;;;;;;18.60;3.30;;;;;;;1.06;92.40;100497.33;106593;1276;24263;-59
2023/01/11 05:13:06;;;;;;;15.90;3.30;;;;;;;1.06;92.40;100493.39;106554;1262;22659;-62
2023/01/11 05:15:37;;;;;;;16.50;2.90;;;;;;;1.05;92.31;100492.08;106468;1276;22534;-58
2023/01/11 05:18:08;;;;;;;13.90;3.20;;;;;;;1.04;92.63;100489.88;106582;1260;22662;-58
2023/01/11 05:20:39;;;;;;;12.10;2.60;;;;;;;1.04;92.57;100488.63;106630;1265;22608;-57
2023/01/11 05:23:10;;;;;;;18.70;4.10;;;;;;;1.05;92.53;100480.66;106487;1273;22931;-58
2023/01/11 05:25:41;;;;;;;27.40;10.70;;;;;;;1.06;92.67;100475.02;106510;1262;24594;-56
2023/01/11 05:28:12;;;;;;;44.10;29.40;;;;;;;1.07;92.61;100474.61;106588;1265;22530;-55
2023/01/11 05:30:43;;;;;;;47.90;33.80;;;;;;;1.06;92.46;100469.90;106662;1263;22632;-58
2023/01/11 05:33:14;;;;;;;42.30;25.40;;;;;;;1.06;92.43;100466.91;106442;1260;25325;-58
2023/01/11 05:35:45;;;;;;;30.60;14.10;;;;;;;1.06;92.43;100460.25;106541;1274;22533;-55
2023/01/11 05:38:16;;;;;;;22.40;9.00;;;;;;;1.05;92.44;100461.52;106568;1262;22847;-59
2023/01/11 05:40:53;;;;;;;20.70;7.80;;;;;;;1.04;92.55;100452.33;106505;1268;22689;-57
2023/01/11 05:43:24;;;;;;;28.20;9.80;;;;;;;1.05;92.50;100454.45;106710;1276;23022;-57
2023/01/11 05:45:55;;;;;;;23.00;9.00;;;;;;;1.05;92.51;100457.52;106619;1273;22537;-64
2023/01/11 05:48:26;;;;;;;27.70;10.10;;;;;;;1.05;92.43;100454.36;106515;1276;22538;-58
2023/01/11 05:50:57;;;;;;;26.80;10.20;;;;;;;1.04;92.24;100463.89;106513;1269;22549;-58
2023/01/11 05:53:28;;;;;;;23.20;8.40;;;;;;;1.02;92.12;100461.48;106440;1269;24249;-58
2023/01/11 05:56:00;;;;;;;17.50;5.50;;;;;;;1.00;92.17;100465.02;106654;1268;22542;-57
2023/01/11 05:58:31;;;;;;;14.20;4.10;;;;;;;0.98;92.18;100465.28;106437;1255;22905;-57
2023/01/11 06:01:02;;;;;;;15.10;3.70;;;;;;;0.95;92.21;100458.64;106391;1260;23909;-58
2023/01/11 06:03:33;;;;;;;16.70;3.00;;;;;;;0.93;92.10;100455.91;106529;1273;22574;-58
2023/01/11 06:06:04;;;;;;;12.20;2.80;;;;;;;0.90;91.87;100456.72;106559;1268;24202;-57
2023/01/11 06:08:35;;;;;;;17.70;3.40;;;;;;;0.89;91.94;100451.24;106409;1269;22481;-58
2023/01/11 06:11:07;;;;;;;11.30;2.50;;;;;;;0.88;92.03;100449.29;106564;1273;24378;-59
2023/01/11 06:13:38;;;;;;;14.20;3.10;;;;;;;0.87;92.05;100440.66;106519;1257;22619;-58
2023/01/11 06:16:12;;;;;;;16.60;4.20;;;;;;;0.87;92.19;100434.14;106493;1257;25272;-57
2023/01/11 06:18:45;;;;;;;12.80;3.00;;;;;;;0.88;92.17;100428.23;107765;1268;24246;-58
2023/01/11 06:21:17;;;;;;;14.40;3.40;;;;;;;0.87;92.11;100426.67;106555;1269;22536;-56
2023/01/11 06:23:50;;;;;;;14.80;3.20;;;;;;;0.87;92.04;100425.96;106641;1276;22575;-58
2023/01/11 06:26:22;;;;;;;14.30;3.00;;;;;;;0.86;91.98;100434.70;106586;1265;25490;-58
2023/01/11 06:28:53;;;;;;;13.80;3.00;;;;;;;0.86;92.07;100435.02;106608;1262;22538;-57
2023/01/11 06:31:24;;;;;;;14.80;3.10;;;;;;;0.88;92.02;100435.87;106561;1262;22527;-57
2023/01/11 06:33:55;;;;;;;15.00;2.40;;;;;;;0.87;91.87;100434.15;106521;1269;22560;-58
2023/01/11 06:36:26;;;;;;;12.10;2.80;;;;;;;0.87;92.00;100426.21;106545;1269;24319;-56
2023/01/11 06:38:57;;;;;;;13.90;2.70;;;;;;;0.87;91.88;100430.92;106566;1276;22663;-58
2023/01/11 06:41:29;;;;;;;12.20;2.40;;;;;;;0.87;91.86;100431.46;106520;1274;22666;-57
2023/01/11 06:43:59;;;;;;;12.60;2.20;;;;;;;0.88;91.68;100434.53;106610;1262;22530;-57
2023/01/11 06:46:31;;;;;;;9.60;2.10;;;;;;;0.88;91.78;100434.20;106514;1269;22654;-56
2023/01/11 06:49:03;;;;;;;14.80;3.10;;;;;;;0.91;91.89;100434.27;106572;1276;22677;-58
2023/01/11 06:51:34;;;;;;;13.80;2.50;;;;;;;0.92;91.85;100432.29;106543;1273;22530;-58
2023/01/11 06:54:05;;;;;;;11.40;2.90;;;;;;;0.96;91.94;100430.13;106569;1276;22537;-58
2023/01/11 06:56:36;;;;;;;14.70;3.20;;;;;;;0.96;91.54;100433.81;106653;1276;24187;-59
2023/01/11 06:59:07;;;;;;;11.30;2.10;;;;;;;0.96;91.77;100435.22;106579;1269;22609;-58
2023/01/11 07:01:38;;;;;;;9.90;2.20;;;;;;;0.98;91.67;100438.66;106525;1271;23047;-58
2023/01/11 07:04:10;;;;;;;13.20;2.00;;;;;;;0.98;91.57;100439.05;106554;1265;24263;-59
2023/01/11 07:06:41;;;;;;;15.20;3.70;;;;;;;0.98;91.48;100436.38;106546;1256;22529;-59
2023/01/11 07:09:12;;;;;;;29.30;11.10;;;;;;;0.98;91.68;100436.14;106492;1269;22516;-56
2023/01/11 07:11:43;;;;;;;29.80;9.80;;;;;;;0.98;91.41;100439.98;106655;1274;22577;-58
2023/01/11 07:14:18;;;;;;;24.60;8.10;;;;;;;0.99;91.59;100441.71;106669;1276;26555;-56
2023/01/11 07:16:49;;;;;;;23.70;7.50;;;;;;;1.00;91.70;100435.89;106532;1276;22531;-59
2023/01/11 07:19:21;;;;;;;35.40;14.20;;;;;;;1.02;91.75;100439.55;106528;1262;22535;-59
2023/01/11 07:21:53;;;;;;;33.60;14.80;;;;;;;1.02;91.54;100436.40;106555;1262;22533;-58
2023/01/11 07:24:24;;;;;;;32.40;13.60;;;;;;;1.02;91.51;100436.73;106702;1269;22549;-58
2023/01/11 07:26:58;;;;;;;20.90;6.80;;;;;;;1.02;91.29;100437.83;106550;1276;24200;-58
2023/01/11 07:29:29;;;;;;;15.50;5.60;;;;;;;1.03;91.34;100431.85;106717;1269;22996;-58
2023/01/11 07:32:00;;;;;;;16.90;5.90;;;;;;;1.06;91.53;100433.39;106507;1270;22705;-57
2023/01/11 07:34:31;;;;;;;18.70;6.50;;;;;;;1.09;91.53;100434.45;106522;1269;24340;-58
2023/01/11 07:37:02;;;;;;;21.20;7.30;;;;;;;1.13;91.48;100429.06;106473;1276;22599;-56
2023/01/11 07:39:33;;;;;;;19.90;4.00;;;;;;;1.17;91.40;100421.88;106471;1262;22586;-58
2023/01/11 07:44:53;;;;;;;12.10;2.70;;;;;;;1.25;91.70;100422.54;106552;1276;24253;-58
2023/01/11 07:47:24;;;;;;;11.20;1.90;;;;;;;1.29;91.69;100423.45;106585;1275;22746;-59
2023/01/11 07:49:56;;;;;;;12.90;2.50;;;;;;;1.32;91.50;100428.59;106486;1272;22530;-58
2023/01/11 07:52:27;;;;;;;11.50;2.40;;;;;;;1.34;91.44;100423.94;106573;1262;22533;-56
2023/01/11 07:55:01;;;;;;;9.80;2.20;;;;;;;1.35;91.46;100421.33;106643;1269;22720;-58
2023/01/11 07:57:32;;;;;;;12.80;2.20;;;;;;;1.36;91.40;100416.05;106512;1273;26636;-58
2023/01/11 08:00:04;;;;;;;17.60;3.70;;;;;;;1.39;91.23;100415.54;106651;1276;22543;-58
2023/01/11 08:02:35;;;;;;;21.70;4.80;;;;;;;1.42;91.35;100414.95;106966;1269;25229;-58
2023/01/11 08:05:07;;;;;;;30.70;7.80;;;;;;;1.44;91.34;100410.05;106588;1276;26552;-57
2023/01/11 08:07:40;;;;;;;26.70;8.80;;;;;;;1.47;91.34;100407.48;106874;1265;26038;-58
2023/01/11 08:10:13;;;;;;;22.60;6.40;;;;;;;1.50;91.43;100410.29;106687;1262;24250;-57
2023/01/11 08:15:41;;;;;;;23.70;6.00;;;;;;;1.57;91.32;100407.35;106529;1273;24243;-56
2023/01/11 08:18:13;;;;;;;21.00;5.60;;;;;;;1.62;91.06;100401.95;106568;1261;25534;-58
2023/01/11 08:20:46;;;;;;;21.50;7.00;;;;;;;1.66;91.04;100397.80;106634;1276;22569;-59
2023/01/11 08:23:17;;;;;;;25.30;7.60;;;;;;;1.70;91.07;100399.23;106630;1261;25361;-58
2023/01/11 08:25:48;;;;;;;24.90;7.80;;;;;;;1.75;90.99;100398.47;106501;1269;25350;-58
2023/01/11 08:28:19;;;;;;;21.80;5.60;;;;;;;1.79;91.12;100402.78;106515;1269;22658;-57
2023/01/11 08:30:50;;;;;;;19.90;4.20;;;;;;;1.84;90.90;100402.80;106552;1272;22624;-58
2023/01/11 08:33:21;;;;;;;17.60;4.20;;;;;;;1.89;90.83;100400.92;106589;1262;24223;-59
2023/01/11 08:35:52;;;;;;;15.60;3.80;;;;;;;1.94;90.89;100392.42;106640;1268;22539;-57
2023/01/11 08:38:23;;;;;;;18.30;5.20;;;;;;;2.00;91.01;100395.17;106536;1275;22517;-58
2023/01/11 08:40:54;;;;;;;15.30;3.70;;;;;;;2.05;90.68;100390.60;106579;1271;22547;-58
2023/01/11 08:43:25;;;;;;;16.10;3.60;;;;;;;2.11;90.52;100392.63;106591;1274;22533;-58
2023/01/11 08:45:56;;;;;;;13.90;3.30;;;;;;;2.15;90.50;100392.32;106576;1262;25597;-58
2023/01/11 08:48:27;;;;;;;11.90;2.60;;;;;;;2.20;90.10;100383.27;106468;1269;22574;-58
2023/01/11 08:50:58;;;;;;;14.90;3.10;;;;;;;2.24;89.99;100382.58;106543;1276;22533;-57
2023/01/11 08:53:29;;;;;;;12.70;2.60;;;;;;;2.27;90.26;100387.88;106805;1276;22528;-58
2023/01/11 08:56:00;;;;;;;9.50;2.30;;;;;;;2.31;90.14;100383.71;106628;1272;22707;-59
2023/01/11 08:58:31;;;;;;;10.80;2.80;;;;;;;2.36;90.03;100381.18;106471;1262;22669;-58
2023/01/11 09:01:06;;;;;;;16.90;3.20;;;;;;;2.41;89.94;100377.47;106513;1276;22590;-59
2023/01/11 09:03:38;;;;;;;12.60;2.40;;;;;;;2.46;90.02;100380.70;106516;1274;22653;-56
2023/01/11 09:06:09;;;;;;;11.30;3.00;;;;;;;2.52;89.97;100384.69;106633;1269;23000;-58
2023/01/11 09:08:41;;;;;;;25.20;5.70;;;;;;;2.58;90.26;100381.98;106725;1276;22530;-59
2023/01/11 09:13:58;;;;;;;14.20;3.00;;;;;;;2.75;89.92;100374.34;106589;1261;22661;-58
2023/01/11 09:16:30;;;;;;;12.50;2.60;;;;;;;2.85;90.06;100375.02;106633;1271;25217;-58
2023/01/11 09:19:01;;;;;;;10.70;2.60;;;;;;;2.94;90.09;100378.53;106609;1271;22530;-59
2023/01/11 09:21:31;;;;;;;14.10;2.60;;;;;;;3.03;90.17;100381.89;106563;1276;25338;-58
2023/01/11 09:24:03;;;;;;;13.90;2.30;;;;;;;3.11;90.32;100375.27;106549;1276;24247;-57
2023/01/11 09:26:36;;;;;;;12.70;2.50;;;;;;;3.18;90.15;100374.56;106698;1276;25276;-58
2023/01/11 09:29:07;;;;;;;13.10;1.90;;;;;;;3.27;89.74;100373.77;106559;1276;22536;-59
2023/01/11 09:31:38;;;;;;;9.90;2.30;;;;;;;3.35;89.59;100377.06;106504;1265;22545;-58
2023/01/11 09:34:11;;;;;;;11.90;2.10;;;;;;;3.43;89.45;100371.59;106681;1269;23155;-58
2023/01/11 09:36:44;;;;;;;17.70;3.50;;;;;;;3.50;89.45;100367.36;106512;1273;22527;-59
2023/01/11 09:39:17;;;;;;;13.10;2.20;;;;;;;3.56;89.39;100367.77;106631;1269;24173;-59
2023/01/11 09:42:14;;;;;;;19.90;5.30;;;;;;;3.62;89.50;100362.43;106574;1276;22547;-57
2023/01/11 09:44:51;;;;;;;20.10;4.80;;;;;;;3.69;89.25;100363.46;106725;1276;24270;-58
2023/01/11 09:47:31;;;;;;;18.20;4.00;;;;;;;3.74;88.86;100364.61;106600;1276;24231;-59
2023/01/11 09:50:11;;;;;;;15.40;3.00;;;;;;;3.79;88.83;100360.23;106526;1268;22534;-59
2023/01/11 09:52:44;;;;;;;15.10;3.20;;;;;;;3.83;88.50;100346.23;106537;1273;22988;-58
2023/01/11 09:55:21;;;;;;;21.80;3.90;;;;;;;3.87;88.32;100336.98;106609;1274;22638;-58
2023/01/11 09:58:01;;;;;;;15.20;2.70;;;;;;;3.91;88.34;100336.26;106588;1271;25730;-59
2023/01/11 10:00:46;;;;;;;15.30;3.00;;;;;;;3.95;88.31;100335.14;106687;1274;22530;-58
2023/01/11 10:03:52;;;;;;;17.70;5.50;;;;;;;3.98;87.71;100334.73;106605;1262;25520;-59
2023/01/11 10:06:30;;;;;;;14.30;3.40;;;;;;;4.01;87.64;100336.55;106540;1269;22549;-58
2023/01/11 10:09:16;;;;;;;13.80;3.10;;;;;;;4.05;87.82;100337.89;106739;1276;23906;-57
2023/01/11 10:12:01;;;;;;;15.50;3.10;;;;;;;4.09;87.78;100329.81;106675;1276;23966;-58
2023/01/11 10:14:41;;;;;;;16.20;3.10;;;;;;;4.14;87.83;100320.23;106668;1276;25335;-59
2023/01/11 10:17:24;;;;;;;17.50;3.20;;;;;;;4.18;87.89;100315.75;106596;1273;22521;-59
2023/01/11 10:20:00;;;;;;;14.20;3.50;;;;;;;4.24;88.11;100319.09;106544;1276;23172;-59
2023/01/11 10:22:39;;;;;;;16.20;3.80;;;;;;;4.28;88.01;100312.03;106585;1269;24227;-58
2023/01/11 10:25:22;;;;;;;14.90;3.50;;;;;;;4.33;87.87;100306.69;106580;1268;23028;-58
2023/01/11 10:27:59;;;;;;;11.00;2.40;;;;;;;4.38;87.80;100303.70;106743;1269;22480;-58
2023/01/11 10:30:47;;;;;;;11.30;3.00;;;;;;;4.43;87.92;100306.65;106588;1262;22681;-59
2023/01/11 10:33:44;;;;;;;17.10;3.00;;;;;;;4.49;87.81;100302.55;106720;1269;23017;-59
2023/01/11 10:36:34;;;;;;;10.00;1.80;;;;;;;4.55;87.64;100293.94;106779;1271;22527;-58
2023/01/11 10:39:30;;;;;;;16.10;3.40;;;;;;;4.61;87.33;100289.64;106558;1276;24236;-58
2023/01/11 10:42:09;;;;;;;12.30;2.00;;;;;;;4.68;87.21;100288.52;106550;1271;24372;-59
2023/01/11 10:44:46;;;;;;;8.90;1.70;;;;;;;4.73;87.26;100280.88;106788;1276;22544;-59
2023/01/11 10:47:23;;;;;;;12.40;2.40;;;;;;;4.77;86.65;100275.92;106616;1268;24194;-59
2023/01/11 10:50:00;;;;;;;11.20;2.20;;;;;;;4.80;86.65;100269.29;106551;1262;22543;-59
2023/01/11 10:52:40;;;;;;;19.50;3.70;;;;;;;4.83;86.77;100264.20;106600;1275;22645;-58
2023/01/11 10:55:19;;;;;;;14.80;3.20;;;;;;;4.87;86.25;100255.95;106652;1276;22671;-59
2023/01/11 10:58:07;;;;;;;16.80;2.90;;;;;;;4.91;86.17;100247.77;106519;1274;24227;-57
2023/01/11 11:00:47;;;;;;;18.90;3.90;;;;;;;4.95;86.31;100240.77;106593;1273;24251;-57
2023/01/11 11:03:50;;;;;;;17.90;3.20;;;;;;;4.99;86.32;100236.31;106520;1261;24304;-59
2023/01/11 11:06:32;;;;;;;16.60;3.30;;;;;;;5.04;86.40;100231.43;106561;1262;22523;-58
2023/01/11 11:09:13;;;;;;;15.90;2.40;;;;;;;5.09;86.29;100233.48;106607;1276;25494;-58
2023/01/11 11:11:47;;;;;;;;;;;;;;;5.15;85.93;100230.04;106854;1276;25291;-59
2023/01/11 11:14:28;;;;;;;13.20;2.10;;;;;;;5.23;85.44;100223.89;106646;1265;25465;-59
2023/01/11 11:17:11;;;;;;;12.10;2.30;;;;;;;5.30;85.34;100215.66;106597;1272;24166;-59
2023/01/11 11:19:42;;;;;;;9.20;1.50;;;;;;;5.38;85.22;100208.23;106525;1275;22529;-60
2023/01/11 11:22:13;;;;;;;5.50;1.20;;;;;;;5.44;85.08;100202.55;106542;1276;22534;-58
2023/01/11 11:24:48;;;;;;;9.90;1.60;;;;;;;5.50;84.98;100190.41;106536;1274;24361;-59
2023/01/11 11:27:25;;;;;;;7.30;1.60;;;;;;;5.56;84.43;100191.38;106562;1276;22634;-59
2023/01/11 11:29:57;;;;;;;7.90;1.30;;;;;;;5.63;83.97;100184.21;106650;1276;22534;-59
2023/01/11 11:32:34;;;;;;;5.40;1.30;;;;;;;5.68;83.43;100180.07;106818;1268;22540;-58
2023/01/11 11:35:06;;;;;;;8.30;1.20;;;;;;;5.73;83.70;100176.81;106514;1269;24301;-58
2023/01/11 11:37:42;;;;;;;12.30;1.50;;;;;;;5.77;83.64;100171.38;106562;1269;22557;-59
2023/01/11 11:40:30;;;;;;;11.90;1.40;;;;;;;5.83;83.73;100162.80;106618;1253;22537;-58
2023/01/11 11:43:17;;;;;;;6.90;1.40;;;;;;;5.86;83.67;100153.98;106592;1276;22556;-59
2023/01/11 11:45:56;;;;;;;11.60;1.90;;;;;;;5.90;83.54;100154.10;106510;1258;24194;-56
2023/01/11 11:48:30;;;;;;;12.10;1.60;;;;;;;5.93;83.42;100151.06;106542;1262;25430;-59
2023/01/11 11:51:04;;;;;;;14.00;1.90;;;;;;;5.97;83.00;100154.58;106562;1276;24252;-58
2023/01/11 11:53:43;;;;;;;16.90;2.60;;;;;;;5.99;83.12;100148.07;106664;1269;22538;-58
2023/01/11 11:56:23;;;;;;;21.30;4.80;;;;;;;6.01;83.03;100145.95;106683;1275;25339;-59
2023/01/11 11:58:55;;;;;;;14.90;3.00;;;;;;;6.03;83.53;100145.73;106584;1276;22542;-58
2023/01/11 12:01:30;;;;;;;14.00;2.10;;;;;;;6.04;83.23;100144.34;106674;1265;24277;-59
2023/01/11 12:04:04;;;;;;;14.90;3.20;;;;;;;6.05;83.28;100137.48;106573;1259;22541;-57
2023/01/11 12:06:35;;;;;;;16.50;3.30;;;;;;;6.05;82.96;100133.61;106503;1276;22654;-59
2023/01/11 12:09:17;;;;;;;13.50;3.20;;;;;;;6.05;83.22;100128.77;106497;1270;25332;-59
2023/01/11 12:11:53;;;;;;;15.90;2.50;;;;;;;6.07;83.18;100124.35;106518;1276;22562;-59
2023/01/11 12:14:28;;;;;;;14.30;2.70;;;;;;;6.08;83.05;100125.27;106428;1262;22973;-58